createdAt,value
2023-03-05T00:08:20.979Z,9.06
2023-03-05T00:10:48.318Z,8.14
2023-03-05T00:13:35.273Z,8.20
2023-03-05T00:16:02.491Z,8.51
2023-03-05T00:18:29.355Z,9.14
2023-03-05T00:20:55.931Z,9.65
2023-03-05T00:23:22.768Z,9.73
2023-03-05T00:25:50.218Z,9.80
2023-03-05T00:28:17.738Z,9.88
2023-03-05T00:30:47.529Z,9.69
2023-03-05T00:33:16.519Z,9.85
2023-03-05T00:35:45.444Z,9.36
2023-03-05T00:38:12.433Z,9.74
2023-03-05T00:40:40.004Z,9.82
2023-03-05T00:43:09.835Z,9.97
2023-03-05T00:45:36.786Z,10.06
2023-03-05T00:48:04.742Z,9.99
2023-03-05T00:50:32.367Z,9.92
2023-03-05T00:53:02.020Z,10.06
2023-03-05T00:55:31.531Z,10.10
2023-03-05T00:57:58.993Z,9.98
2023-03-05T01:00:26.601Z,10.13
2023-03-05T01:02:53.522Z,10.04
2023-03-05T01:05:25.223Z,9.84
2023-03-05T01:07:52.097Z,9.98
2023-03-05T01:10:21.523Z,10.09
2023-03-05T01:15:44.643Z,10.08
2023-03-05T01:18:15.465Z,9.74
2023-03-05T01:20:42.449Z,9.76
2023-03-05T01:23:17.464Z,9.76
2023-03-05T01:25:51.354Z,8.86
2023-03-05T01:28:20.404Z,8.08
2023-03-05T01:30:47.864Z,8.72
2023-03-05T01:33:17.649Z,8.47
2023-03-05T01:35:45.171Z,7.12
2023-03-05T01:38:12.456Z,7.08
2023-03-05T01:40:39.523Z,7.61
2023-03-05T01:43:06.675Z,7.15
2023-03-05T01:45:34.595Z,7.56
2023-03-05T01:48:01.716Z,8.12
2023-03-05T01:50:29.639Z,7.22
2023-03-05T01:52:56.635Z,7.55
2023-03-05T01:55:23.577Z,7.59
2023-03-05T01:57:50.620Z,8.08
2023-03-05T02:00:20.300Z,8.63
2023-03-05T02:02:48.922Z,8.87
2023-03-05T02:05:18.010Z,8.36
2023-03-05T02:07:45.725Z,8.58
2023-03-05T02:10:12.752Z,8.38
2023-03-05T02:12:39.730Z,8.49
2023-03-05T02:15:08.615Z,6.97
2023-03-05T02:17:36.662Z,7.28
2023-03-05T02:20:04.552Z,7.39
2023-03-05T02:22:34.079Z,8.21
2023-03-05T02:25:01.169Z,8.60
2023-03-05T02:27:28.361Z,8.71
2023-03-05T02:29:55.412Z,8.67
2023-03-05T02:32:22.379Z,7.88
2023-03-05T02:34:50.513Z,6.94
2023-03-05T02:37:17.591Z,6.46
2023-03-05T02:39:51.788Z,6.12
2023-03-05T02:42:22.473Z,5.90
2023-03-05T02:44:49.539Z,5.62
2023-03-05T02:47:16.535Z,5.08
2023-03-05T02:49:43.611Z,5.19
2023-03-05T02:52:14.839Z,4.72
2023-03-05T02:54:41.982Z,4.57
2023-03-05T02:57:08.880Z,5.03
2023-03-05T02:59:35.930Z,4.92
2023-03-05T03:02:10.098Z,5.37
2023-03-05T03:04:36.997Z,5.70
2023-03-05T03:07:04.490Z,4.86
2023-03-05T03:09:32.145Z,4.41
2023-03-05T03:11:59.203Z,4.27
2023-03-05T03:14:29.072Z,4.18
2023-03-05T03:16:56.378Z,4.28
2023-03-05T03:19:23.314Z,4.37
2023-03-05T03:21:50.530Z,4.36
2023-03-05T03:24:19.248Z,4.08
2023-03-05T03:26:49.058Z,4.32
2023-03-05T03:29:20.066Z,4.24
2023-03-05T03:31:47.868Z,3.98
2023-03-05T03:34:16.242Z,4.00
2023-03-05T03:36:43.206Z,3.96
2023-03-05T03:39:10.256Z,3.87
2023-03-05T03:41:44.458Z,4.40
2023-03-05T03:44:11.826Z,4.25
2023-03-05T03:46:38.893Z,3.87
2023-03-05T03:49:05.615Z,3.55
2023-03-05T03:51:32.650Z,3.41
2023-03-05T03:53:59.746Z,3.32
2023-03-05T03:56:27.236Z,3.28
2023-03-05T03:58:54.116Z,3.06
2023-03-05T04:01:23.161Z,3.18
2023-03-05T04:03:50.330Z,3.29
2023-03-05T04:06:16.911Z,3.33
2023-03-05T04:08:43.929Z,3.25
2023-03-05T04:11:10.992Z,3.90
2023-03-05T04:16:33.841Z,3.60
2023-03-05T04:19:03.468Z,3.74
2023-03-05T04:21:30.445Z,4.11
2023-03-05T04:23:57.386Z,4.22
2023-03-05T04:26:24.325Z,4.22
2023-03-05T04:28:51.318Z,3.81
2023-03-05T04:31:19.750Z,4.76
2023-03-05T04:33:47.722Z,5.67
2023-03-05T04:36:17.297Z,6.15
2023-03-05T04:38:44.332Z,6.50
2023-03-05T04:41:11.214Z,6.76
2023-03-05T04:43:41.062Z,6.95
2023-03-05T04:46:11.051Z,5.20
2023-03-05T04:48:37.984Z,5.01
2023-03-05T04:51:07.394Z,5.72
2023-03-05T04:53:37.016Z,6.40
2023-03-05T04:56:07.317Z,6.98
2023-03-05T04:58:41.058Z,6.96
2023-03-05T05:01:08.773Z,7.26
2023-03-05T05:03:38.641Z,7.41
2023-03-05T05:06:08.298Z,6.74
2023-03-05T05:08:38.058Z,6.82
2023-03-05T05:11:05.167Z,6.86
2023-03-05T05:13:35.688Z,6.88
2023-03-05T05:16:02.694Z,7.08
2023-03-05T05:18:29.741Z,7.23
2023-03-05T05:20:58.465Z,7.44
2023-03-05T05:23:27.072Z,6.54
2023-03-05T05:25:54.053Z,6.74
2023-03-05T05:28:24.337Z,7.02
2023-03-05T05:30:51.935Z,7.38
2023-03-05T05:33:19.090Z,7.57
2023-03-05T05:35:47.618Z,7.63
2023-03-05T05:38:14.618Z,7.64
2023-03-05T05:40:43.825Z,7.45
2023-03-05T05:43:10.699Z,7.57
2023-03-05T05:45:37.694Z,7.60
2023-03-05T05:48:04.677Z,7.12
2023-03-05T05:50:31.633Z,7.23
2023-03-05T05:52:58.735Z,6.46
2023-03-05T05:55:26.236Z,6.46
2023-03-05T05:57:53.095Z,6.81
2023-03-05T06:00:20.020Z,6.73
2023-03-05T06:02:47.003Z,7.22
2023-03-05T06:05:14.554Z,7.07
2023-03-05T06:07:41.497Z,7.09
2023-03-05T06:10:11.037Z,6.75
2023-03-05T06:12:40.984Z,5.95
2023-03-05T06:15:07.488Z,6.47
2023-03-05T06:17:34.409Z,6.40
2023-03-05T06:20:01.360Z,6.68
2023-03-05T06:22:28.966Z,6.11
2023-03-05T06:24:55.872Z,5.64
2023-03-05T06:27:22.847Z,5.42
2023-03-05T06:29:51.592Z,5.07
2023-03-05T06:32:21.148Z,4.73
2023-03-05T06:34:54.032Z,4.07
2023-03-05T06:37:20.806Z,3.81
2023-03-05T06:39:47.695Z,4.05
2023-03-05T06:42:14.935Z,3.72
2023-03-05T06:44:45.941Z,3.62
2023-03-05T06:47:14.825Z,4.05
2023-03-05T06:49:43.180Z,3.82
2023-03-05T06:52:10.014Z,4.25
2023-03-05T06:54:36.857Z,3.62
2023-03-05T06:57:10.340Z,3.63
2023-03-05T06:59:37.242Z,3.59
2023-03-05T07:02:04.192Z,3.78
2023-03-05T07:04:31.723Z,4.06
2023-03-05T07:06:59.268Z,4.40
2023-03-05T07:09:26.704Z,4.51
2023-03-05T07:11:54.223Z,4.43
2023-03-05T07:14:24.253Z,4.73
2023-03-05T07:16:52.056Z,4.90
2023-03-05T07:22:12.534Z,4.72
2023-03-05T07:24:41.253Z,5.21
2023-03-05T07:27:18.202Z,5.46
2023-03-05T07:33:04.046Z,6.08
2023-03-05T07:35:31.578Z,6.68
2023-03-05T07:44:10.599Z,7.61
2023-03-05T07:46:57.113Z,7.96
2023-03-05T07:52:30.716Z,7.54
2023-03-05T07:54:58.737Z,7.87
2023-03-05T07:57:29.676Z,7.95
2023-03-05T08:00:05.891Z,8.38
2023-03-05T08:05:25.590Z,8.28
2023-03-05T08:07:53.033Z,8.73
2023-03-05T08:10:19.963Z,8.25
2023-03-05T08:12:46.599Z,7.99
2023-03-05T08:15:13.458Z,7.84
2023-03-05T08:17:42.275Z,8.33
2023-03-05T08:20:09.649Z,8.16
2023-03-05T08:22:39.204Z,8.23
2023-03-05T08:25:13.128Z,7.17
2023-03-05T08:27:43.087Z,7.75
2023-03-05T08:30:09.701Z,7.24
2023-03-05T08:32:37.788Z,6.94
2023-03-05T08:35:09.542Z,5.62
2023-03-05T08:37:36.728Z,5.78
2023-03-05T08:40:05.210Z,6.93
2023-03-05T08:42:34.209Z,7.42
2023-03-05T08:45:00.726Z,7.91
2023-03-05T08:47:28.706Z,8.26
2023-03-05T08:50:02.730Z,7.55
2023-03-05T08:52:29.696Z,8.26
2023-03-05T08:54:58.455Z,8.59
2023-03-05T08:57:28.992Z,9.01
2023-03-05T08:59:55.974Z,8.87
2023-03-05T09:02:23.501Z,8.67
2023-03-05T09:04:50.111Z,8.88
2023-03-05T09:07:17.011Z,9.23
2023-03-05T09:09:43.872Z,9.13
2023-03-05T09:38:09.273Z,8.60
2023-03-05T09:40:53.522Z,9.31
2023-03-05T09:52:22.900Z,9.39
2023-03-05T09:58:05.899Z,10.23
2023-03-05T10:00:36.018Z,10.57
2023-03-05T10:03:06.185Z,9.96
2023-03-05T10:05:34.822Z,10.30
2023-03-05T10:08:01.630Z,10.28
2023-03-05T10:10:31.238Z,10.84
2023-03-05T10:12:58.278Z,10.73
2023-03-05T10:15:26.105Z,10.37
2023-03-05T10:17:54.684Z,10.21
2023-03-05T10:20:21.820Z,10.00
2023-03-05T10:22:48.823Z,9.54
2023-03-05T10:25:17.445Z,10.21
2023-03-05T10:27:48.144Z,10.78
2023-03-05T10:30:15.961Z,10.94
2023-03-05T10:32:46.926Z,10.84
2023-03-05T10:35:14.954Z,11.33
2023-03-05T10:40:22.324Z,11.78
2023-03-05T10:42:49.279Z,12.21
2023-03-05T10:45:20.192Z,12.56
2023-03-05T10:47:47.144Z,11.66
2023-03-05T10:50:14.310Z,11.70
2023-03-05T10:52:41.892Z,12.15
2023-03-05T10:55:10.432Z,10.46
2023-03-05T10:57:45.106Z,10.53
2023-03-05T11:00:12.378Z,11.07
2023-03-05T11:02:39.842Z,10.34
2023-03-05T11:05:09.911Z,9.90
2023-03-05T11:07:38.815Z,9.91
2023-03-05T11:10:11.858Z,10.37
2023-03-05T11:12:42.313Z,9.70
2023-03-05T11:18:10.936Z,9.92
2023-03-05T11:20:38.290Z,9.54
2023-03-05T11:23:06.455Z,10.07
2023-03-05T11:25:35.861Z,9.36
2023-03-05T11:28:03.632Z,9.47
2023-03-05T11:30:31.948Z,9.65
2023-03-05T11:32:59.600Z,9.57
2023-03-05T11:35:27.070Z,9.19
2023-03-05T11:40:52.212Z,9.61
2023-03-05T11:43:18.929Z,9.38
2023-03-05T11:45:45.880Z,9.98
2023-03-05T11:48:14.824Z,9.69
2023-03-05T11:50:41.685Z,10.17
2023-03-05T11:56:02.273Z,10.44
2023-03-05T11:58:51.014Z,9.33
2023-03-05T12:01:22.998Z,9.78
2023-03-05T12:07:10.549Z,9.77
2023-03-05T12:12:22.803Z,9.25
2023-03-05T12:14:52.804Z,9.65
2023-03-05T12:17:23.241Z,10.22
2023-03-05T12:19:51.903Z,10.54
2023-03-05T16:00:42.116Z,13.02
2023-03-05T16:03:12.342Z,13.14
2023-03-05T16:05:41.350Z,12.84
2023-03-05T16:08:07.834Z,12.80
2023-03-05T16:10:34.664Z,12.86
2023-03-05T16:13:01.515Z,12.28
2023-03-05T16:15:28.365Z,12.43
2023-03-05T16:17:55.429Z,12.85
2023-03-05T16:20:25.110Z,12.87
2023-03-05T16:22:52.332Z,12.87
2023-03-05T16:28:53.936Z,12.52
2023-03-05T16:31:25.078Z,12.05
2023-03-05T16:33:52.161Z,12.37
2023-03-05T16:36:27.613Z,12.41
2023-03-05T16:38:54.200Z,12.56
2023-03-05T16:41:28.046Z,12.30
2023-03-05T16:43:55.125Z,12.32
2023-03-05T16:46:26.452Z,12.33
2023-03-05T16:48:53.410Z,12.36
2023-03-05T16:51:23.510Z,12.33
2023-03-05T22:05:06.650Z,7.10
2023-03-05T22:10:41.693Z,6.92
2023-03-05T22:29:03.234Z,7.22
2023-03-05T22:42:59.764Z,7.74
2023-03-05T22:45:26.770Z,6.88
2023-03-05T23:12:17.003Z,7.07
2023-03-05T23:27:47.908Z,6.15
2023-03-05T23:30:31.725Z,6.82
2023-03-05T23:36:15.048Z,7.90
2023-03-05T23:51:02.347Z,8.51
2023-03-05T23:53:29.437Z,8.19
